sensor_id;sensor_type;location;lat;lon;timestamp;P1;durP1;ratioP1;P2;durP2;ratioP2
19547;SDS011;9919;58.014;11.826;2022-09-25T00:01:27;0.50;;;0.50;;
19547;SDS011;9919;58.014;11.826;2022-09-25T00:03:29;0.50;;;0.50;;
19547;SDS011;9919;58.014;11.826;2022-09-25T00:05:33;0.47;;;0.47;;
19547;SDS011;9919;58.014;11.826;2022-09-25T00:07:36;0.70;;;0.60;;
19547;SDS011;9919;58.014;11.826;2022-09-25T00:09:37;0.80;;;0.80;;
19547;SDS011;9919;58.014;11.826;2022-09-25T00:11:38;0.95;;;0.68;;
19547;SDS011;9919;58.014;11.826;2022-09-25T00:13:40;0.80;;;0.80;;
19547;SDS011;9919;58.014;11.826;2022-09-25T00:16:00;0.60;;;0.60;;
19547;SDS011;9919;58.014;11.826;2022-09-25T00:18:02;0.68;;;0.68;;
19547;SDS011;9919;58.014;11.826;2022-09-25T00:20:03;0.60;;;0.60;;
19547;SDS011;9919;58.014;11.826;2022-09-25T00:22:05;0.55;;;0.55;;
19547;SDS011;9919;58.014;11.826;2022-09-25T00:24:08;1.90;;;0.68;;
19547;SDS011;9919;58.014;11.826;2022-09-25T00:26:12;0.70;;;0.70;;
19547;SDS011;9919;58.014;11.826;2022-09-25T00:28:14;0.65;;;0.65;;
19547;SDS011;9919;58.014;11.826;2022-09-25T00:30:15;0.70;;;0.70;;
19547;SDS011;9919;58.014;11.826;2022-09-25T00:32:16;1.05;;;0.80;;
19547;SDS011;9919;58.014;11.826;2022-09-25T00:34:18;1.15;;;0.73;;
19547;SDS011;9919;58.014;11.826;2022-09-25T00:36:19;0.77;;;0.77;;
19547;SDS011;9919;58.014;11.826;2022-09-25T00:38:21;0.63;;;0.63;;
19547;SDS011;9919;58.014;11.826;2022-09-25T00:40:22;0.50;;;0.50;;
19547;SDS011;9919;58.014;11.826;2022-09-25T00:42:24;0.50;;;0.50;;
19547;SDS011;9919;58.014;11.826;2022-09-25T00:46:45;0.65;;;0.65;;
19547;SDS011;9919;58.014;11.826;2022-09-25T00:49:06;0.60;;;0.60;;
19547;SDS011;9919;58.014;11.826;2022-09-25T00:51:13;2.85;;;0.60;;
19547;SDS011;9919;58.014;11.826;2022-09-25T00:53:23;0.65;;;0.65;;
19547;SDS011;9919;58.014;11.826;2022-09-25T00:55:34;3.60;;;0.60;;
19547;SDS011;9919;58.014;11.826;2022-09-25T00:57:37;0.70;;;0.70;;
19547;SDS011;9919;58.014;11.826;2022-09-25T00:59:42;0.80;;;0.80;;
19547;SDS011;9919;58.014;11.826;2022-09-25T01:01:46;0.90;;;0.70;;
19547;SDS011;9919;58.014;11.826;2022-09-25T01:03:47;0.80;;;0.80;;
19547;SDS011;9919;58.014;11.826;2022-09-25T01:05:48;0.70;;;0.70;;
19547;SDS011;9919;58.014;11.826;2022-09-25T01:07:50;0.63;;;0.63;;
19547;SDS011;9919;58.014;11.826;2022-09-25T01:09:52;0.70;;;0.70;;
19547;SDS011;9919;58.014;11.826;2022-09-25T01:11:58;1.13;;;0.73;;
19547;SDS011;9919;58.014;11.826;2022-09-25T01:14:00;0.77;;;0.77;;
19547;SDS011;9919;58.014;11.826;2022-09-25T01:18:14;0.85;;;0.80;;
19547;SDS011;9919;58.014;11.826;2022-09-25T01:29:44;0.70;;;0.70;;
19547;SDS011;9919;58.014;11.826;2022-09-25T01:34:09;0.50;;;0.50;;
19547;SDS011;9919;58.014;11.826;2022-09-25T01:41:42;0.68;;;0.68;;
19547;SDS011;9919;58.014;11.826;2022-09-25T01:43:57;0.57;;;0.57;;
19547;SDS011;9919;58.014;11.826;2022-09-25T01:46:15;2.50;;;0.70;;
19547;SDS011;9919;58.014;11.826;2022-09-25T01:48:20;0.80;;;0.80;;
19547;SDS011;9919;58.014;11.826;2022-09-25T01:50:36;0.70;;;0.70;;
19547;SDS011;9919;58.014;11.826;2022-09-25T01:52:42;0.60;;;0.60;;
19547;SDS011;9919;58.014;11.826;2022-09-25T01:54:49;0.77;;;0.75;;
19547;SDS011;9919;58.014;11.826;2022-09-25T01:56:54;0.43;;;0.43;;
19547;SDS011;9919;58.014;11.826;2022-09-25T01:59:17;0.50;;;0.50;;
19547;SDS011;9919;58.014;11.826;2022-09-25T02:01:39;0.63;;;0.63;;
19547;SDS011;9919;58.014;11.826;2022-09-25T02:03:45;0.63;;;0.63;;
19547;SDS011;9919;58.014;11.826;2022-09-25T02:05:54;0.60;;;0.60;;
19547;SDS011;9919;58.014;11.826;2022-09-25T02:08:02;0.50;;;0.50;;
19547;SDS011;9919;58.014;11.826;2022-09-25T02:10:08;0.40;;;0.40;;
19547;SDS011;9919;58.014;11.826;2022-09-25T02:12:27;0.70;;;0.70;;
19547;SDS011;9919;58.014;11.826;2022-09-25T02:14:37;0.55;;;0.55;;
19547;SDS011;9919;58.014;11.826;2022-09-25T02:17:01;0.60;;;0.60;;
19547;SDS011;9919;58.014;11.826;2022-09-25T02:19:03;0.90;;;0.90;;
19547;SDS011;9919;58.014;11.826;2022-09-25T02:23:36;0.47;;;0.47;;
19547;SDS011;9919;58.014;11.826;2022-09-25T02:28:06;1.90;;;0.68;;
19547;SDS011;9919;58.014;11.826;2022-09-25T02:30:09;0.77;;;0.77;;
19547;SDS011;9919;58.014;11.826;2022-09-25T02:32:11;0.60;;;0.60;;
19547;SDS011;9919;58.014;11.826;2022-09-25T02:34:18;0.57;;;0.57;;
19547;SDS011;9919;58.014;11.826;2022-09-25T02:36:20;0.70;;;0.70;;
19547;SDS011;9919;58.014;11.826;2022-09-25T02:38:24;0.80;;;0.80;;
19547;SDS011;9919;58.014;11.826;2022-09-25T02:40:34;0.60;;;0.60;;
19547;SDS011;9919;58.014;11.826;2022-09-25T02:42:57;0.70;;;0.70;;
19547;SDS011;9919;58.014;11.826;2022-09-25T02:50:22;0.60;;;0.60;;
19547;SDS011;9919;58.014;11.826;2022-09-25T02:52:29;0.50;;;0.50;;
19547;SDS011;9919;58.014;11.826;2022-09-25T02:57:03;0.63;;;0.63;;
19547;SDS011;9919;58.014;11.826;2022-09-25T02:59:07;0.70;;;0.70;;
19547;SDS011;9919;58.014;11.826;2022-09-25T03:01:19;0.50;;;0.50;;
19547;SDS011;9919;58.014;11.826;2022-09-25T03:03:23;0.63;;;0.63;;
19547;SDS011;9919;58.014;11.826;2022-09-25T03:05:25;0.52;;;0.52;;
19547;SDS011;9919;58.014;11.826;2022-09-25T03:07:26;0.70;;;0.70;;
19547;SDS011;9919;58.014;11.826;2022-09-25T03:09:28;0.50;;;0.50;;
19547;SDS011;9919;58.014;11.826;2022-09-25T03:11:34;0.80;;;0.80;;
19547;SDS011;9919;58.014;11.826;2022-09-25T03:13:42;0.95;;;0.95;;
19547;SDS011;9919;58.014;11.826;2022-09-25T03:15:47;0.63;;;0.63;;
19547;SDS011;9919;58.014;11.826;2022-09-25T03:17:51;0.55;;;0.55;;
19547;SDS011;9919;58.014;11.826;2022-09-25T03:19:52;0.60;;;0.60;;
19547;SDS011;9919;58.014;11.826;2022-09-25T03:21:54;0.63;;;0.63;;
19547;SDS011;9919;58.014;11.826;2022-09-25T03:23:56;0.50;;;0.50;;
19547;SDS011;9919;58.014;11.826;2022-09-25T03:25:58;0.40;;;0.40;;
19547;SDS011;9919;58.014;11.826;2022-09-25T03:27:59;0.60;;;0.60;;
19547;SDS011;9919;58.014;11.826;2022-09-25T03:30:02;1.33;;;0.70;;
19547;SDS011;9919;58.014;11.826;2022-09-25T03:32:05;0.60;;;0.60;;
19547;SDS011;9919;58.014;11.826;2022-09-25T03:34:06;0.88;;;0.88;;
19547;SDS011;9919;58.014;11.826;2022-09-25T03:38:10;0.60;;;0.52;;
19547;SDS011;9919;58.014;11.826;2022-09-25T03:40:11;0.52;;;0.52;;
19547;SDS011;9919;58.014;11.826;2022-09-25T03:42:13;0.65;;;0.65;;
19547;SDS011;9919;58.014;11.826;2022-09-25T03:44:14;0.40;;;0.40;;
19547;SDS011;9919;58.014;11.826;2022-09-25T03:46:16;0.43;;;0.43;;
19547;SDS011;9919;58.014;11.826;2022-09-25T03:48:25;1.13;;;1.02;;
19547;SDS011;9919;58.014;11.826;2022-09-25T03:50:26;0.50;;;0.50;;
19547;SDS011;9919;58.014;11.826;2022-09-25T03:52:27;0.40;;;0.40;;
19547;SDS011;9919;58.014;11.826;2022-09-25T03:54:29;0.50;;;0.50;;
19547;SDS011;9919;58.014;11.826;2022-09-25T03:56:30;0.65;;;0.65;;
19547;SDS011;9919;58.014;11.826;2022-09-25T03:58:31;0.50;;;0.50;;
19547;SDS011;9919;58.014;11.826;2022-09-25T04:00:33;0.70;;;0.70;;
19547;SDS011;9919;58.014;11.826;2022-09-25T04:02:35;0.68;;;0.68;;
19547;SDS011;9919;58.014;11.826;2022-09-25T04:04:36;0.80;;;0.80;;
19547;SDS011;9919;58.014;11.826;2022-09-25T04:06:38;0.50;;;0.50;;
19547;SDS011;9919;58.014;11.826;2022-09-25T04:08:39;0.47;;;0.47;;
19547;SDS011;9919;58.014;11.826;2022-09-25T04:10:41;0.70;;;0.70;;
19547;SDS011;9919;58.014;11.826;2022-09-25T04:12:42;0.50;;;0.50;;
19547;SDS011;9919;58.014;11.826;2022-09-25T04:14:43;0.50;;;0.50;;
19547;SDS011;9919;58.014;11.826;2022-09-25T04:16:45;0.60;;;0.60;;
19547;SDS011;9919;58.014;11.826;2022-09-25T04:18:47;0.60;;;0.60;;
19547;SDS011;9919;58.014;11.826;2022-09-25T04:20:49;0.60;;;0.60;;
19547;SDS011;9919;58.014;11.826;2022-09-25T04:22:50;0.77;;;0.77;;
19547;SDS011;9919;58.014;11.826;2022-09-25T04:24:52;0.70;;;0.70;;
19547;SDS011;9919;58.014;11.826;2022-09-25T04:26:53;0.40;;;0.40;;
19547;SDS011;9919;58.014;11.826;2022-09-25T04:28:55;0.70;;;0.70;;
19547;SDS011;9919;58.014;11.826;2022-09-25T04:30:56;0.63;;;0.63;;
19547;SDS011;9919;58.014;11.826;2022-09-25T04:32:58;0.60;;;0.60;;
19547;SDS011;9919;58.014;11.826;2022-09-25T04:35:18;0.50;;;0.50;;
19547;SDS011;9919;58.014;11.826;2022-09-25T04:37:19;0.60;;;0.60;;
19547;SDS011;9919;58.014;11.826;2022-09-25T04:39:25;0.80;;;0.80;;
19547;SDS011;9919;58.014;11.826;2022-09-25T04:41:27;0.50;;;0.50;;
19547;SDS011;9919;58.014;11.826;2022-09-25T04:43:29;0.35;;;0.35;;
19547;SDS011;9919;58.014;11.826;2022-09-25T04:45:32;0.50;;;0.47;;
19547;SDS011;9919;58.014;11.826;2022-09-25T04:47:35;0.60;;;0.60;;
19547;SDS011;9919;58.014;11.826;2022-09-25T04:49:37;0.57;;;0.57;;
19547;SDS011;9919;58.014;11.826;2022-09-25T04:51:38;0.55;;;0.55;;
19547;SDS011;9919;58.014;11.826;2022-09-25T04:53:39;0.60;;;0.60;;
19547;SDS011;9919;58.014;11.826;2022-09-25T04:55:41;0.60;;;0.60;;
19547;SDS011;9919;58.014;11.826;2022-09-25T04:57:45;0.60;;;0.60;;
19547;SDS011;9919;58.014;11.826;2022-09-25T04:59:51;0.70;;;0.70;;
19547;SDS011;9919;58.014;11.826;2022-09-25T05:01:53;0.60;;;0.60;;
19547;SDS011;9919;58.014;11.826;2022-09-25T05:03:54;0.60;;;0.60;;
19547;SDS011;9919;58.014;11.826;2022-09-25T05:05:55;0.70;;;0.70;;
19547;SDS011;9919;58.014;11.826;2022-09-25T05:07:59;0.45;;;0.45;;
19547;SDS011;9919;58.014;11.826;2022-09-25T05:10:01;0.63;;;0.63;;
19547;SDS011;9919;58.014;11.826;2022-09-25T05:12:03;0.63;;;0.63;;
19547;SDS011;9919;58.014;11.826;2022-09-25T05:14:05;0.70;;;0.68;;
19547;SDS011;9919;58.014;11.826;2022-09-25T05:16:08;3.72;;;0.98;;
19547;SDS011;9919;58.014;11.826;2022-09-25T05:20:17;0.50;;;0.50;;
19547;SDS011;9919;58.014;11.826;2022-09-25T05:22:18;0.60;;;0.60;;
19547;SDS011;9919;58.014;11.826;2022-09-25T05:24:20;0.45;;;0.45;;
19547;SDS011;9919;58.014;11.826;2022-09-25T05:26:21;0.50;;;0.50;;
19547;SDS011;9919;58.014;11.826;2022-09-25T05:28:23;0.50;;;0.50;;
19547;SDS011;9919;58.014;11.826;2022-09-25T05:30:25;0.57;;;0.57;;
19547;SDS011;9919;58.014;11.826;2022-09-25T05:32:30;0.40;;;0.40;;
19547;SDS011;9919;58.014;11.826;2022-09-25T05:34:31;0.50;;;0.50;;
19547;SDS011;9919;58.014;11.826;2022-09-25T05:36:33;0.68;;;0.68;;
19547;SDS011;9919;58.014;11.826;2022-09-25T05:38:36;0.57;;;0.57;;
19547;SDS011;9919;58.014;11.826;2022-09-25T05:40:38;0.73;;;0.73;;
19547;SDS011;9919;58.014;11.826;2022-09-25T05:42:39;0.47;;;0.47;;
19547;SDS011;9919;58.014;11.826;2022-09-25T05:44:43;0.52;;;0.52;;
19547;SDS011;9919;58.014;11.826;2022-09-25T05:46:44;0.80;;;0.80;;
19547;SDS011;9919;58.014;11.826;2022-09-25T05:48:46;0.50;;;0.50;;
19547;SDS011;9919;58.014;11.826;2022-09-25T05:50:51;1.13;;;0.60;;
19547;SDS011;9919;58.014;11.826;2022-09-25T05:52:56;0.50;;;0.50;;
19547;SDS011;9919;58.014;11.826;2022-09-25T05:54:58;0.70;;;0.70;;
19547;SDS011;9919;58.014;11.826;2022-09-25T05:57:02;0.60;;;0.60;;
19547;SDS011;9919;58.014;11.826;2022-09-25T05:59:03;0.80;;;0.80;;
19547;SDS011;9919;58.014;11.826;2022-09-25T06:01:05;0.50;;;0.50;;
19547;SDS011;9919;58.014;11.826;2022-09-25T06:03:07;0.55;;;0.55;;
19547;SDS011;9919;58.014;11.826;2022-09-25T06:05:09;0.60;;;0.60;;
19547;SDS011;9919;58.014;11.826;2022-09-25T06:07:10;0.60;;;0.60;;
19547;SDS011;9919;58.014;11.826;2022-09-25T06:09:12;0.38;;;0.38;;
19547;SDS011;9919;58.014;11.826;2022-09-25T06:11:13;0.30;;;0.30;;
19547;SDS011;9919;58.014;11.826;2022-09-25T06:13:15;0.75;;;0.65;;
19547;SDS011;9919;58.014;11.826;2022-09-25T06:15:16;0.50;;;0.50;;
19547;SDS011;9919;58.014;11.826;2022-09-25T06:17:18;1.77;;;0.52;;
19547;SDS011;9919;58.014;11.826;2022-09-25T06:19:19;0.50;;;0.50;;
19547;SDS011;9919;58.014;11.826;2022-09-25T06:21:21;2.20;;;0.63;;
19547;SDS011;9919;58.014;11.826;2022-09-25T06:23:22;0.60;;;0.60;;
19547;SDS011;9919;58.014;11.826;2022-09-25T06:25:25;0.90;;;0.50;;
19547;SDS011;9919;58.014;11.826;2022-09-25T06:27:27;0.52;;;0.52;;
19547;SDS011;9919;58.014;11.826;2022-09-25T06:29:30;0.50;;;0.50;;
19547;SDS011;9919;58.014;11.826;2022-09-25T06:31:31;0.68;;;0.60;;
19547;SDS011;9919;58.014;11.826;2022-09-25T06:33:33;0.60;;;0.60;;
19547;SDS011;9919;58.014;11.826;2022-09-25T06:35:35;0.63;;;0.63;;
19547;SDS011;9919;58.014;11.826;2022-09-25T06:37:40;0.60;;;0.60;;
19547;SDS011;9919;58.014;11.826;2022-09-25T06:39:42;0.40;;;0.40;;
19547;SDS011;9919;58.014;11.826;2022-09-25T06:41:43;0.73;;;0.73;;
19547;SDS011;9919;58.014;11.826;2022-09-25T06:43:47;1.73;;;0.75;;
19547;SDS011;9919;58.014;11.826;2022-09-25T06:45:48;0.68;;;0.60;;
19547;SDS011;9919;58.014;11.826;2022-09-25T06:47:50;0.57;;;0.57;;
19547;SDS011;9919;58.014;11.826;2022-09-25T06:49:56;0.40;;;0.40;;
19547;SDS011;9919;58.014;11.826;2022-09-25T06:52:00;0.50;;;0.50;;
19547;SDS011;9919;58.014;11.826;2022-09-25T06:54:01;0.47;;;0.47;;
19547;SDS011;9919;58.014;11.826;2022-09-25T06:56:02;0.50;;;0.50;;
19547;SDS011;9919;58.014;11.826;2022-09-25T06:58:05;0.55;;;0.55;;
19547;SDS011;9919;58.014;11.826;2022-09-25T07:00:07;0.43;;;0.43;;
19547;SDS011;9919;58.014;11.826;2022-09-25T07:02:09;0.50;;;0.50;;
19547;SDS011;9919;58.014;11.826;2022-09-25T07:04:29;0.52;;;0.52;;
19547;SDS011;9919;58.014;11.826;2022-09-25T07:06:31;0.70;;;0.70;;
19547;SDS011;9919;58.014;11.826;2022-09-25T07:08:34;0.40;;;0.40;;
19547;SDS011;9919;58.014;11.826;2022-09-25T07:10:35;0.60;;;0.60;;
19547;SDS011;9919;58.014;11.826;2022-09-25T07:12:36;0.52;;;0.52;;
19547;SDS011;9919;58.014;11.826;2022-09-25T07:14:40;0.43;;;0.43;;
19547;SDS011;9919;58.014;11.826;2022-09-25T07:16:43;0.63;;;0.63;;
19547;SDS011;9919;58.014;11.826;2022-09-25T07:18:45;0.45;;;0.45;;
19547;SDS011;9919;58.014;11.826;2022-09-25T07:20:48;0.60;;;0.60;;
19547;SDS011;9919;58.014;11.826;2022-09-25T07:22:50;0.50;;;0.50;;
19547;SDS011;9919;58.014;11.826;2022-09-25T07:24:53;0.50;;;0.50;;
19547;SDS011;9919;58.014;11.826;2022-09-25T07:26:54;0.47;;;0.47;;
19547;SDS011;9919;58.014;11.826;2022-09-25T07:29:00;0.77;;;0.77;;
19547;SDS011;9919;58.014;11.826;2022-09-25T07:31:16;0.50;;;0.50;;
19547;SDS011;9919;58.014;11.826;2022-09-25T07:33:19;0.38;;;0.20;;
19547;SDS011;9919;58.014;11.826;2022-09-25T07:35:23;0.40;;;0.40;;
19547;SDS011;9919;58.014;11.826;2022-09-25T07:37:26;0.80;;;0.47;;
19547;SDS011;9919;58.014;11.826;2022-09-25T07:39:27;0.45;;;0.45;;
19547;SDS011;9919;58.014;11.826;2022-09-25T07:41:29;0.52;;;0.52;;
19547;SDS011;9919;58.014;11.826;2022-09-25T07:43:33;1.20;;;0.43;;
19547;SDS011;9919;58.014;11.826;2022-09-25T07:45:34;0.60;;;0.60;;
19547;SDS011;9919;58.014;11.826;2022-09-25T07:47:36;1.02;;;0.70;;
19547;SDS011;9919;58.014;11.826;2022-09-25T07:49:37;1.08;;;0.68;;
19547;SDS011;9919;58.014;11.826;2022-09-25T07:51:39;1.23;;;0.68;;
19547;SDS011;9919;58.014;11.826;2022-09-25T07:53:40;0.63;;;0.63;;
19547;SDS011;9919;58.014;11.826;2022-09-25T07:55:43;0.60;;;0.60;;
19547;SDS011;9919;58.014;11.826;2022-09-25T07:57:46;0.50;;;0.50;;
19547;SDS011;9919;58.014;11.826;2022-09-25T07:59:49;1.27;;;0.52;;
19547;SDS011;9919;58.014;11.826;2022-09-25T08:01:50;0.52;;;0.52;;
19547;SDS011;9919;58.014;11.826;2022-09-25T08:03:52;0.45;;;0.45;;
19547;SDS011;9919;58.014;11.826;2022-09-25T08:06:00;0.35;;;0.35;;
19547;SDS011;9919;58.014;11.826;2022-09-25T08:08:06;0.40;;;0.40;;
19547;SDS011;9919;58.014;11.826;2022-09-25T08:10:07;0.40;;;0.40;;
19547;SDS011;9919;58.014;11.826;2022-09-25T08:12:09;0.40;;;0.40;;
19547;SDS011;9919;58.014;11.826;2022-09-25T08:14:12;0.65;;;0.63;;
19547;SDS011;9919;58.014;11.826;2022-09-25T08:16:17;0.40;;;0.40;;
19547;SDS011;9919;58.014;11.826;2022-09-25T08:18:20;0.50;;;0.50;;
19547;SDS011;9919;58.014;11.826;2022-09-25T08:20:22;2.13;;;0.60;;
19547;SDS011;9919;58.014;11.826;2022-09-25T08:22:23;0.52;;;0.52;;
19547;SDS011;9919;58.014;11.826;2022-09-25T08:24:25;0.38;;;0.38;;
19547;SDS011;9919;58.014;11.826;2022-09-25T08:26:26;0.30;;;0.30;;
19547;SDS011;9919;58.014;11.826;2022-09-25T08:28:28;1.52;;;0.50;;
19547;SDS011;9919;58.014;11.826;2022-09-25T08:30:29;0.65;;;0.65;;
19547;SDS011;9919;58.014;11.826;2022-09-25T08:32:32;0.70;;;0.70;;
19547;SDS011;9919;58.014;11.826;2022-09-25T08:34:34;0.45;;;0.43;;
19547;SDS011;9919;58.014;11.826;2022-09-25T08:36:36;0.55;;;0.55;;
19547;SDS011;9919;58.014;11.826;2022-09-25T08:38:37;0.70;;;0.70;;
19547;SDS011;9919;58.014;11.826;2022-09-25T08:40:43;0.43;;;0.43;;
19547;SDS011;9919;58.014;11.826;2022-09-25T08:42:50;0.40;;;0.40;;
19547;SDS011;9919;58.014;11.826;2022-09-25T08:44:53;0.60;;;0.60;;
19547;SDS011;9919;58.014;11.826;2022-09-25T08:47:20;0.40;;;0.40;;
19547;SDS011;9919;58.014;11.826;2022-09-25T08:49:44;0.45;;;0.45;;
19547;SDS011;9919;58.014;11.826;2022-09-25T08:52:07;1.40;;;0.50;;
19547;SDS011;9919;58.014;11.826;2022-09-25T08:54:21;0.63;;;0.60;;
19547;SDS011;9919;58.014;11.826;2022-09-25T08:56:23;2.60;;;0.68;;
19547;SDS011;9919;58.014;11.826;2022-09-25T08:58:29;0.80;;;0.43;;
19547;SDS011;9919;58.014;11.826;2022-09-25T09:00:32;0.50;;;0.50;;
19547;SDS011;9919;58.014;11.826;2022-09-25T09:04:40;0.60;;;0.60;;
19547;SDS011;9919;58.014;11.826;2022-09-25T09:07:06;0.43;;;0.43;;
19547;SDS011;9919;58.014;11.826;2022-09-25T09:09:13;0.40;;;0.40;;
19547;SDS011;9919;58.014;11.826;2022-09-25T09:11:19;0.55;;;0.55;;
19547;SDS011;9919;58.014;11.826;2022-09-25T09:13:25;0.70;;;0.55;;
19547;SDS011;9919;58.014;11.826;2022-09-25T09:15:34;0.98;;;0.70;;
19547;SDS011;9919;58.014;11.826;2022-09-25T09:17:56;0.38;;;0.38;;
19547;SDS011;9919;58.014;11.826;2022-09-25T09:20:04;0.43;;;0.43;;
19547;SDS011;9919;58.014;11.826;2022-09-25T09:22:23;0.50;;;0.50;;
19547;SDS011;9919;58.014;11.826;2022-09-25T09:24:41;0.70;;;0.70;;
19547;SDS011;9919;58.014;11.826;2022-09-25T09:31:29;0.70;;;0.70;;
19547;SDS011;9919;58.014;11.826;2022-09-25T09:33:47;0.50;;;0.50;;
19547;SDS011;9919;58.014;11.826;2022-09-25T09:38:37;0.50;;;0.50;;
19547;SDS011;9919;58.014;11.826;2022-09-25T09:41:10;0.40;;;0.40;;
19547;SDS011;9919;58.014;11.826;2022-09-25T09:45:52;0.40;;;0.40;;
19547;SDS011;9919;58.014;11.826;2022-09-25T09:48:10;0.50;;;0.50;;
19547;SDS011;9919;58.014;11.826;2022-09-25T09:50:23;0.60;;;0.60;;
19547;SDS011;9919;58.014;11.826;2022-09-25T09:52:36;0.32;;;0.32;;
19547;SDS011;9919;58.014;11.826;2022-09-25T09:54:54;1.60;;;0.40;;
19547;SDS011;9919;58.014;11.826;2022-09-25T09:57:00;0.20;;;0.20;;
19547;SDS011;9919;58.014;11.826;2022-09-25T09:59:10;0.85;;;0.70;;
19547;SDS011;9919;58.014;11.826;2022-09-25T10:01:18;0.75;;;0.75;;
19547;SDS011;9919;58.014;11.826;2022-09-25T10:03:22;0.60;;;0.60;;
19547;SDS011;9919;58.014;11.826;2022-09-25T10:07:34;1.77;;;0.65;;
19547;SDS011;9919;58.014;11.826;2022-09-25T10:09:37;0.70;;;0.70;;
19547;SDS011;9919;58.014;11.826;2022-09-25T10:11:38;1.08;;;0.55;;
19547;SDS011;9919;58.014;11.826;2022-09-25T10:13:40;0.55;;;0.55;;
19547;SDS011;9919;58.014;11.826;2022-09-25T10:15:45;0.68;;;0.68;;
19547;SDS011;9919;58.014;11.826;2022-09-25T10:17:56;0.50;;;0.50;;
19547;SDS011;9919;58.014;11.826;2022-09-25T10:20:00;0.47;;;0.47;;
19547;SDS011;9919;58.014;11.826;2022-09-25T10:22:06;0.47;;;0.47;;
19547;SDS011;9919;58.014;11.826;2022-09-25T10:25:00;0.47;;;0.47;;
19547;SDS011;9919;58.014;11.826;2022-09-25T10:26:57;0.45;;;0.45;;
19547;SDS011;9919;58.014;11.826;2022-09-25T10:29:26;0.57;;;0.57;;
19547;SDS011;9919;58.014;11.826;2022-09-25T10:31:28;0.60;;;0.60;;
19547;SDS011;9919;58.014;11.826;2022-09-25T10:33:32;0.50;;;0.50;;
19547;SDS011;9919;58.014;11.826;2022-09-25T10:37:37;1.00;;;0.70;;
19547;SDS011;9919;58.014;11.826;2022-09-25T10:39:39;0.52;;;0.52;;
19547;SDS011;9919;58.014;11.826;2022-09-25T10:41:41;0.50;;;0.50;;
19547;SDS011;9919;58.014;11.826;2022-09-25T10:46:08;0.60;;;0.60;;
19547;SDS011;9919;58.014;11.826;2022-09-25T10:51:05;0.52;;;0.52;;
19547;SDS011;9919;58.014;11.826;2022-09-25T10:53:22;0.40;;;0.40;;
19547;SDS011;9919;58.014;11.826;2022-09-25T10:55:31;0.43;;;0.43;;
19547;SDS011;9919;58.014;11.826;2022-09-25T10:57:37;0.60;;;0.60;;
19547;SDS011;9919;58.014;11.826;2022-09-25T10:59:45;0.88;;;0.52;;
19547;SDS011;9919;58.014;11.826;2022-09-25T11:01:50;0.60;;;0.60;;
19547;SDS011;9919;58.014;11.826;2022-09-25T11:03:53;0.57;;;0.57;;
19547;SDS011;9919;58.014;11.826;2022-09-25T11:05:57;0.50;;;0.50;;
19547;SDS011;9919;58.014;11.826;2022-09-25T11:08:07;0.40;;;0.40;;
19547;SDS011;9919;58.014;11.826;2022-09-25T11:10:17;0.55;;;0.55;;
19547;SDS011;9919;58.014;11.826;2022-09-25T11:12:24;0.60;;;0.60;;
19547;SDS011;9919;58.014;11.826;2022-09-25T11:14:29;0.80;;;0.52;;
19547;SDS011;9919;58.014;11.826;2022-09-25T11:16:43;0.60;;;0.60;;
19547;SDS011;9919;58.014;11.826;2022-09-25T11:18:50;0.40;;;0.40;;
19547;SDS011;9919;58.014;11.826;2022-09-25T11:21:05;0.73;;;0.73;;
19547;SDS011;9919;58.014;11.826;2022-09-25T11:23:28;1.10;;;1.08;;
19547;SDS011;9919;58.014;11.826;2022-09-25T11:25:42;0.68;;;0.68;;
19547;SDS011;9919;58.014;11.826;2022-09-25T11:28:01;0.40;;;0.40;;
19547;SDS011;9919;58.014;11.826;2022-09-25T11:30:25;0.52;;;0.52;;
19547;SDS011;9919;58.014;11.826;2022-09-25T11:32:41;0.57;;;0.57;;
19547;SDS011;9919;58.014;11.826;2022-09-25T11:39:27;1.17;;;1.08;;
19547;SDS011;9919;58.014;11.826;2022-09-25T11:42:04;0.50;;;0.50;;
19547;SDS011;9919;58.014;11.826;2022-09-25T11:44:27;2.10;;;0.65;;
19547;SDS011;9919;58.014;11.826;2022-09-25T11:48:58;0.85;;;0.65;;
19547;SDS011;9919;58.014;11.826;2022-09-25T12:02:29;0.52;;;0.52;;
19547;SDS011;9919;58.014;11.826;2022-09-25T12:09:32;0.90;;;0.77;;
19547;SDS011;9919;58.014;11.826;2022-09-25T12:12:23;0.65;;;0.65;;
19547;SDS011;9919;58.014;11.826;2022-09-25T12:19:48;0.38;;;0.38;;
19547;SDS011;9919;58.014;11.826;2022-09-25T12:24:23;0.68;;;0.68;;
19547;SDS011;9919;58.014;11.826;2022-09-25T12:39:55;0.77;;;0.65;;
19547;SDS011;9919;58.014;11.826;2022-09-25T12:42:20;0.65;;;0.65;;
19547;SDS011;9919;58.014;11.826;2022-09-25T12:44:24;0.40;;;0.40;;
19547;SDS011;9919;58.014;11.826;2022-09-25T12:46:36;0.82;;;0.65;;
19547;SDS011;9919;58.014;11.826;2022-09-25T12:48:44;0.50;;;0.50;;
19547;SDS011;9919;58.014;11.826;2022-09-25T12:53:01;0.95;;;0.90;;
19547;SDS011;9919;58.014;11.826;2022-09-25T12:58:04;0.70;;;0.70;;
19547;SDS011;9919;58.014;11.826;2022-09-25T13:00:26;0.73;;;0.73;;
19547;SDS011;9919;58.014;11.826;2022-09-25T13:02:36;1.30;;;0.73;;
19547;SDS011;9919;58.014;11.826;2022-09-25T13:07:06;0.30;;;0.30;;
19547;SDS011;9919;58.014;11.826;2022-09-25T13:09:27;0.40;;;0.40;;
19547;SDS011;9919;58.014;11.826;2022-09-25T13:11:43;1.17;;;0.50;;
19547;SDS011;9919;58.014;11.826;2022-09-25T13:13:57;0.60;;;0.60;;
19547;SDS011;9919;58.014;11.826;2022-09-25T13:16:00;0.68;;;0.68;;
19547;SDS011;9919;58.014;11.826;2022-09-25T13:18:02;0.88;;;0.73;;
19547;SDS011;9919;58.014;11.826;2022-09-25T13:22:25;0.50;;;0.50;;
19547;SDS011;9919;58.014;11.826;2022-09-25T13:24:26;0.82;;;0.70;;
19547;SDS011;9919;58.014;11.826;2022-09-25T13:26:28;0.85;;;0.60;;
19547;SDS011;9919;58.014;11.826;2022-09-25T13:29:06;0.77;;;0.77;;
19547;SDS011;9919;58.014;11.826;2022-09-25T13:31:07;2.00;;;0.82;;
19547;SDS011;9919;58.014;11.826;2022-09-25T13:33:14;0.60;;;0.60;;
19547;SDS011;9919;58.014;11.826;2022-09-25T13:35:19;0.82;;;0.80;;
19547;SDS011;9919;58.014;11.826;2022-09-25T13:37:26;0.70;;;0.70;;
19547;SDS011;9919;58.014;11.826;2022-09-25T13:39:37;1.10;;;0.98;;
19547;SDS011;9919;58.014;11.826;2022-09-25T13:46:42;0.77;;;0.77;;
19547;SDS011;9919;58.014;11.826;2022-09-25T13:48:43;0.70;;;0.70;;
19547;SDS011;9919;58.014;11.826;2022-09-25T13:50:45;0.57;;;0.57;;
19547;SDS011;9919;58.014;11.826;2022-09-25T13:52:50;0.57;;;0.57;;
19547;SDS011;9919;58.014;11.826;2022-09-25T13:55:16;0.57;;;0.57;;
19547;SDS011;9919;58.014;11.826;2022-09-25T13:57:40;2.97;;;0.60;;
19547;SDS011;9919;58.014;11.826;2022-09-25T14:00:00;1.40;;;0.90;;
19547;SDS011;9919;58.014;11.826;2022-09-25T14:04:33;2.17;;;1.67;;
19547;SDS011;9919;58.014;11.826;2022-09-25T14:06:36;3.50;;;1.88;;
19547;SDS011;9919;58.014;11.826;2022-09-25T14:08:39;3.10;;;2.17;;
19547;SDS011;9919;58.014;11.826;2022-09-25T14:10:48;2.45;;;2.00;;
19547;SDS011;9919;58.014;11.826;2022-09-25T14:12:51;2.65;;;1.90;;
19547;SDS011;9919;58.014;11.826;2022-09-25T14:15:02;2.55;;;1.88;;
19547;SDS011;9919;58.014;11.826;2022-09-25T14:17:08;6.90;;;2.42;;
19547;SDS011;9919;58.014;11.826;2022-09-25T14:19:38;4.18;;;1.98;;
19547;SDS011;9919;58.014;11.826;2022-09-25T14:21:38;2.58;;;1.67;;
19547;SDS011;9919;58.014;11.826;2022-09-25T14:25:55;2.97;;;1.85;;
19547;SDS011;9919;58.014;11.826;2022-09-25T14:30:22;1.40;;;1.30;;
19547;SDS011;9919;58.014;11.826;2022-09-25T14:34:51;2.58;;;1.45;;
19547;SDS011;9919;58.014;11.826;2022-09-25T14:41:58;3.35;;;1.70;;
19547;SDS011;9919;58.014;11.826;2022-09-25T14:47:07;1.90;;;1.42;;
19547;SDS011;9919;58.014;11.826;2022-09-25T14:49:18;2.42;;;1.70;;
19547;SDS011;9919;58.014;11.826;2022-09-25T14:51:35;4.38;;;1.73;;
19547;SDS011;9919;58.014;11.826;2022-09-25T14:53:42;3.70;;;1.80;;
19547;SDS011;9919;58.014;11.826;2022-09-25T14:55:47;2.25;;;1.75;;
19547;SDS011;9919;58.014;11.826;2022-09-25T14:57:51;5.85;;;1.90;;